TAF CYQT 230740Z 2308/2320 VRB03KT P6SM SKC
PROB30 2308/2312 2SM BR
FM231400 25006KT P6SM SCT240
FM231800 21010KT P6SM SCT025 BKN140 RMK NXT FCST BY 231400Z
From batch tds/tafs/production/2022/9/23/h07_m59_tafs.cache.xml
Issued (9 days ago)
Forecasts
2308/2314 VRB03KT P6SM SKC

---
fcst_time_to: '2022-09-23T14:00:00Z'
sky_condition:
- sky_cover: SKC
wind_speed_kt: '3'
fcst_time_from: '2022-09-23T08:00:00Z'
wind_dir_degrees: '0'
visibility_statute_mi: '6.21'

2.0SM

---
wx_string: BR
probability: '30'
fcst_time_to: '2022-09-23T12:00:00Z'
fcst_time_from: '2022-09-23T08:00:00Z'
change_indicator: PROB
visibility_statute_mi: '2.0'

FM231400 25006KT P6SM SCT24000

---
fcst_time_to: '2022-09-23T18:00:00Z'
sky_condition:
- sky_cover: SCT
  cloud_base_ft_agl: '24000'
wind_speed_kt: '6'
fcst_time_from: '2022-09-23T14:00:00Z'
change_indicator: FM
wind_dir_degrees: '250'
visibility_statute_mi: '6.21'

FM231800 21010KT P6SM SCT2500 BKN14000

---
fcst_time_to: '2022-09-23T20:00:00Z'
sky_condition:
- - sky_cover: SCT
    cloud_base_ft_agl: '2500'
- - sky_cover: BKN
    cloud_base_ft_agl: '14000'
wind_speed_kt: '10'
fcst_time_from: '2022-09-23T18:00:00Z'
change_indicator: FM
wind_dir_degrees: '210'
visibility_statute_mi: '6.21'

talk